createdAt,value
2022-09-07T00:01:05.646Z,21.00
2022-09-07T00:03:32.335Z,20.90
2022-09-07T00:05:59.161Z,20.80
2022-09-07T00:08:27.435Z,20.80
2022-09-07T00:11:01.560Z,20.80
2022-09-07T00:13:31.015Z,20.80
2022-09-07T00:15:57.949Z,20.80
2022-09-07T00:18:24.889Z,20.60
2022-09-07T00:21:02.875Z,20.60
2022-09-07T00:23:30.941Z,20.60
2022-09-07T00:26:06.395Z,20.50
2022-09-07T00:28:33.446Z,20.50
2022-09-07T00:31:00.283Z,20.50
2022-09-07T00:33:27.283Z,20.40
2022-09-07T00:35:54.687Z,20.40
2022-09-07T00:38:21.342Z,20.30
2022-09-07T00:40:48.005Z,20.30
2022-09-07T00:43:18.257Z,20.20
2022-09-07T00:45:44.961Z,20.20
2022-09-07T00:48:17.082Z,20.10
2022-09-07T00:50:49.383Z,20.00
2022-09-07T00:53:33.066Z,20.00
2022-09-07T00:56:00.844Z,20.00
2022-09-07T00:58:28.213Z,20.00
2022-09-07T01:00:55.964Z,20.20
2022-09-07T01:03:30.930Z,20.30
2022-09-07T01:06:01.299Z,20.30
2022-09-07T01:08:28.378Z,20.40
2022-09-07T01:10:55.886Z,20.50
2022-09-07T01:13:22.598Z,20.50
2022-09-07T01:15:57.331Z,20.70
2022-09-07T01:18:45.486Z,20.70
2022-09-07T01:21:26.812Z,20.80
2022-09-07T01:24:18.380Z,20.80
2022-09-07T01:27:27.013Z,20.80
2022-09-07T01:30:04.235Z,20.90
2022-09-07T01:32:42.965Z,20.90
2022-09-07T01:35:21.620Z,21.00
2022-09-07T01:38:00.202Z,21.00
2022-09-07T01:41:05.128Z,21.00
2022-09-07T01:43:52.194Z,21.00
2022-09-07T01:46:33.792Z,21.00
2022-09-07T01:49:22.635Z,21.00
2022-09-07T01:51:56.947Z,21.00
2022-09-07T01:54:31.975Z,21.00
2022-09-07T01:57:04.772Z,21.00
2022-09-07T02:00:10.821Z,21.00
2022-09-07T02:03:00.779Z,21.00
2022-09-07T02:05:58.673Z,21.00
2022-09-07T02:08:31.888Z,21.00
2022-09-07T02:11:06.798Z,21.00
2022-09-07T02:13:39.574Z,21.10
2022-09-07T02:16:11.750Z,21.10
2022-09-07T02:18:45.172Z,21.10
2022-09-07T02:21:15.636Z,21.10
2022-09-07T02:23:51.865Z,21.10
2022-09-07T02:26:24.922Z,21.10
2022-09-07T02:28:51.887Z,21.10
2022-09-07T02:31:18.658Z,21.10
2022-09-07T02:33:45.544Z,21.10
2022-09-07T02:36:15.827Z,21.10
2022-09-07T02:38:42.406Z,21.10
2022-09-07T02:41:35.233Z,21.10
2022-09-07T02:44:05.907Z,21.20
2022-09-07T02:46:50.293Z,21.20
2022-09-07T02:49:32.319Z,21.20
2022-09-07T02:52:23.070Z,21.30
2022-09-07T02:55:05.176Z,21.30
2022-09-07T02:57:40.837Z,21.30
2022-09-07T03:00:19.150Z,21.30
2022-09-07T03:03:11.180Z,21.30
2022-09-07T03:05:54.996Z,21.30
2022-09-07T03:08:29.878Z,21.40
2022-09-07T03:10:58.267Z,21.40
2022-09-07T03:13:28.522Z,21.40
2022-09-07T03:15:56.352Z,21.40
2022-09-07T03:18:24.541Z,21.40
2022-09-07T03:20:51.343Z,21.40
2022-09-07T03:23:18.121Z,21.40
2022-09-07T03:25:44.936Z,21.50
2022-09-07T03:28:12.078Z,21.50
2022-09-07T03:30:44.150Z,21.50
2022-09-07T03:33:11.000Z,21.50
2022-09-07T03:35:37.721Z,21.50
2022-09-07T03:38:04.358Z,21.50
2022-09-07T03:40:31.039Z,21.50
2022-09-07T03:42:57.670Z,21.50
2022-09-07T03:45:24.321Z,21.60
2022-09-07T03:47:51.154Z,21.60
2022-09-07T03:50:17.920Z,21.60
2022-09-07T03:52:44.761Z,21.60
2022-09-07T03:55:11.525Z,21.60
2022-09-07T03:57:39.090Z,21.60
2022-09-07T04:00:06.302Z,21.60
2022-09-07T04:02:33.082Z,21.50
2022-09-07T04:04:59.774Z,21.50
2022-09-07T04:07:26.444Z,21.50
2022-09-07T04:09:53.096Z,21.40
2022-09-07T04:12:19.764Z,21.40
2022-09-07T04:14:46.438Z,21.30
2022-09-07T04:17:13.148Z,21.30
2022-09-07T04:19:39.850Z,21.20
2022-09-07T04:22:06.485Z,21.20
2022-09-07T04:24:33.156Z,21.20
2022-09-07T04:27:00.196Z,21.10
2022-09-07T04:29:26.837Z,21.00
2022-09-07T04:31:53.528Z,21.00
2022-09-07T04:34:20.718Z,21.00
2022-09-07T04:36:47.363Z,20.90
2022-09-07T04:39:14.021Z,20.80
2022-09-07T04:41:40.733Z,20.70
2022-09-07T04:44:07.421Z,20.60
2022-09-07T04:46:36.652Z,20.60
2022-09-07T04:49:06.711Z,20.60
2022-09-07T04:51:33.646Z,20.60
2022-09-07T04:54:02.345Z,20.50
2022-09-07T04:56:29.738Z,20.50
2022-09-07T04:58:56.675Z,20.40
2022-09-07T05:01:24.969Z,20.40
2022-09-07T05:03:52.072Z,20.40
2022-09-07T05:06:20.611Z,20.30
2022-09-07T05:08:49.764Z,20.30
2022-09-07T05:11:17.239Z,20.30
2022-09-07T05:13:44.229Z,20.20
2022-09-07T05:16:19.926Z,20.20
2022-09-07T05:18:51.192Z,20.20
2022-09-07T05:21:20.877Z,20.20
2022-09-07T05:23:52.058Z,20.20
2022-09-07T05:26:19.892Z,20.10
2022-09-07T05:28:47.027Z,20.10
2022-09-07T05:31:22.638Z,20.10
2022-09-07T05:36:41.294Z,20.10
2022-09-07T05:39:08.536Z,20.10
2022-09-07T05:41:35.400Z,20.10
2022-09-07T05:46:49.016Z,20.10
2022-09-07T05:49:15.678Z,20.10
2022-09-07T05:51:42.429Z,20.20
2022-09-07T05:54:10.949Z,20.20
2022-09-07T05:56:37.654Z,20.20
2022-09-07T05:59:04.682Z,20.20
2022-09-07T06:01:31.852Z,20.30
2022-09-07T06:03:58.905Z,20.30
2022-09-07T06:06:25.551Z,20.30
2022-09-07T06:08:53.937Z,20.30
2022-09-07T06:11:22.639Z,20.30
2022-09-07T06:13:50.124Z,20.30
2022-09-07T06:16:18.649Z,20.40
2022-09-07T06:18:47.345Z,20.30
2022-09-07T06:21:16.874Z,20.40
2022-09-07T06:23:44.813Z,20.40
2022-09-07T06:26:12.257Z,20.40
2022-09-07T06:28:46.647Z,20.40
2022-09-07T06:31:18.271Z,20.50
2022-09-07T06:33:46.517Z,20.50
2022-09-07T06:36:15.812Z,20.50
2022-09-07T06:38:43.541Z,20.50
2022-09-07T06:44:08.283Z,20.60
2022-09-07T06:49:21.725Z,20.60
2022-09-07T06:51:48.386Z,20.70
2022-09-07T06:57:08.475Z,20.80
2022-09-07T06:59:35.626Z,21.00
2022-09-07T07:02:02.465Z,21.00
2022-09-07T07:04:29.169Z,21.10
2022-09-07T07:06:56.007Z,21.10
2022-09-07T07:09:22.677Z,21.20
2022-09-07T07:11:49.317Z,21.20
2022-09-07T07:14:17.366Z,21.30
2022-09-07T07:16:44.144Z,21.20
2022-09-07T07:19:10.910Z,21.30
2022-09-07T07:22:03.138Z,21.30
2022-09-07T07:24:24.630Z,21.30
2022-09-07T07:26:51.505Z,21.40
2022-09-07T07:29:18.821Z,21.40
2022-09-07T07:31:46.963Z,21.40
2022-09-07T07:34:13.866Z,21.50
2022-09-07T07:36:40.589Z,21.50
2022-09-07T07:39:07.382Z,21.60
2022-09-07T07:44:21.063Z,21.60
2022-09-07T07:46:51.609Z,21.60
2022-09-07T07:49:18.859Z,21.70
2022-09-07T07:54:36.692Z,21.70
2022-09-07T07:57:05.137Z,21.70
2022-09-07T07:59:31.820Z,21.80
2022-09-07T08:02:04.219Z,21.80
2022-09-07T08:04:32.838Z,21.80
2022-09-07T08:06:59.661Z,21.90
2022-09-07T08:09:26.477Z,21.90
2022-09-07T08:11:53.077Z,22.00
2022-09-07T08:14:19.778Z,22.00
2022-09-07T08:16:46.442Z,22.10
2022-09-07T08:19:13.461Z,22.10
2022-09-07T08:21:40.332Z,22.10
2022-09-07T08:24:07.140Z,22.20
2022-09-07T08:26:33.755Z,22.20
2022-09-07T08:29:00.388Z,22.20
2022-09-07T08:31:27.156Z,22.20
2022-09-07T08:33:53.818Z,22.30
2022-09-07T08:36:21.376Z,22.30
2022-09-07T08:38:48.594Z,22.40
2022-09-07T08:41:36.719Z,22.40
2022-09-07T08:44:23.179Z,22.40
2022-09-07T08:46:54.239Z,22.40
2022-09-07T08:49:39.111Z,22.50
2022-09-07T08:52:12.531Z,22.50
2022-09-07T08:54:42.642Z,22.50
2022-09-07T08:57:25.254Z,22.60
2022-09-07T09:00:02.088Z,22.60
2022-09-07T09:02:31.916Z,22.60
2022-09-07T09:05:19.429Z,22.70
2022-09-07T09:07:53.237Z,22.70
2022-09-07T09:10:29.258Z,22.70
2022-09-07T09:13:26.476Z,22.70
2022-09-07T09:16:40.150Z,22.80
2022-09-07T09:19:40.127Z,22.80
2022-09-07T09:22:21.708Z,22.90
2022-09-07T09:25:03.320Z,22.90
2022-09-07T09:27:29.933Z,23.00
2022-09-07T09:29:56.583Z,23.00
2022-09-07T09:33:11.504Z,23.00
2022-09-07T09:35:39.587Z,23.10
2022-09-07T09:38:31.834Z,23.10
2022-09-07T09:41:11.110Z,23.10
2022-09-07T09:43:52.661Z,23.10
2022-09-07T09:46:29.789Z,23.20
2022-09-07T09:48:59.298Z,23.20
2022-09-07T09:54:22.757Z,23.30
2022-09-07T09:56:49.667Z,23.30
2022-09-07T10:05:48.281Z,23.40
2022-09-07T10:08:28.774Z,23.50
2022-09-07T10:10:57.140Z,23.50
2022-09-07T10:13:36.050Z,23.50
2022-09-07T10:16:08.106Z,23.50
2022-09-07T10:18:56.564Z,23.60
2022-09-07T10:21:29.031Z,23.70
2022-09-07T10:24:15.742Z,23.80
2022-09-07T10:26:44.788Z,23.90
2022-09-07T10:29:30.278Z,24.00
2022-09-07T10:32:17.424Z,24.00
2022-09-07T10:34:50.699Z,24.00
2022-09-07T10:37:44.768Z,24.10
2022-09-07T10:40:34.397Z,24.10
2022-09-07T10:43:43.442Z,24.10
2022-09-07T10:50:22.042Z,24.10
2022-09-07T10:52:43.405Z,24.20
2022-09-07T10:55:50.863Z,24.30
2022-09-07T11:01:41.616Z,24.40
2022-09-07T11:04:40.191Z,24.50
2022-09-07T11:07:44.529Z,24.60
2022-09-07T11:10:29.122Z,24.70
2022-09-07T11:13:00.166Z,24.90
2022-09-07T11:15:31.366Z,25.10
2022-09-07T11:18:19.810Z,25.20
2022-09-07T11:20:59.043Z,25.30
2022-09-07T11:23:40.391Z,25.50
2022-09-07T11:26:17.618Z,25.60
2022-09-07T11:31:44.019Z,25.70
2022-09-07T11:34:25.266Z,25.90
2022-09-07T11:37:19.494Z,25.90
2022-09-07T11:40:14.083Z,26.00
2022-09-07T11:43:11.667Z,26.00
2022-09-07T11:45:55.445Z,26.10
2022-09-07T11:48:46.193Z,26.10
2022-09-07T11:51:36.907Z,26.10
2022-09-07T11:54:46.991Z,26.10
2022-09-07T11:57:32.364Z,26.00
2022-09-07T12:00:12.108Z,26.10
2022-09-07T12:03:00.901Z,26.00
2022-09-07T12:05:46.020Z,26.10
2022-09-07T12:08:30.394Z,26.10
2022-09-07T12:11:15.109Z,26.10
2022-09-07T12:13:53.747Z,26.00
2022-09-07T12:17:01.012Z,26.00
2022-09-07T12:19:28.324Z,25.90
2022-09-07T12:21:59.660Z,25.90
2022-09-07T12:24:35.038Z,25.90
2022-09-07T12:27:03.102Z,25.90
2022-09-07T12:29:30.964Z,26.00
2022-09-07T12:32:53.423Z,26.00
2022-09-07T12:34:55.882Z,26.20
2022-09-07T12:37:39.012Z,26.20
2022-09-07T12:40:27.686Z,26.30
2022-09-07T12:43:12.441Z,26.40
2022-09-07T12:45:39.025Z,26.40
2022-09-07T12:48:14.507Z,26.40
2022-09-07T12:51:05.374Z,26.50
2022-09-07T12:53:57.890Z,26.50
2022-09-07T13:00:12.310Z,26.60
2022-09-07T13:03:04.144Z,26.70
2022-09-07T13:05:56.065Z,26.80
2022-09-07T13:09:04.150Z,26.90
2022-09-07T13:11:35.777Z,26.90
2022-09-07T13:14:08.874Z,26.90
2022-09-07T13:19:45.912Z,26.90
2022-09-07T13:22:35.693Z,27.00
2022-09-07T13:25:23.575Z,27.00
2022-09-07T13:27:53.313Z,27.00
2022-09-07T13:30:22.412Z,27.00
2022-09-07T13:35:36.400Z,27.10
2022-09-07T13:38:04.653Z,27.00
2022-09-07T13:40:39.629Z,27.10
2022-09-07T13:43:13.659Z,27.00
2022-09-07T13:45:56.075Z,27.00
2022-09-07T13:48:46.252Z,27.00
2022-09-07T13:51:13.249Z,27.00
2022-09-07T13:54:10.748Z,27.00
2022-09-07T13:56:58.265Z,27.10
2022-09-07T13:59:31.140Z,27.20
2022-09-07T14:01:58.389Z,27.20
2022-09-07T14:04:58.691Z,27.20
2022-09-07T14:07:28.047Z,27.20
2022-09-07T14:10:25.207Z,27.20
2022-09-07T14:13:06.374Z,27.20
2022-09-07T14:15:42.336Z,27.20
2022-09-07T14:18:15.227Z,27.20
2022-09-07T14:20:50.711Z,27.20
2022-09-07T14:23:23.769Z,27.10
2022-09-07T14:26:22.057Z,27.10
2022-09-07T14:28:51.639Z,27.00
2022-09-07T14:31:20.606Z,27.10
2022-09-07T14:33:58.599Z,27.10
2022-09-07T14:36:46.972Z,27.10
2022-09-07T14:39:16.982Z,27.10
2022-09-07T14:41:44.634Z,27.20
2022-09-07T14:44:32.167Z,27.20
2022-09-07T14:47:07.876Z,27.20
2022-09-07T14:49:35.002Z,27.20
2022-09-07T14:52:01.975Z,27.30
2022-09-07T14:54:34.012Z,27.30
2022-09-07T14:57:09.234Z,27.20
2022-09-07T14:59:47.592Z,27.30
2022-09-07T15:02:17.855Z,27.20
2022-09-07T15:04:49.846Z,27.10
2022-09-07T15:07:39.454Z,27.00
2022-09-07T15:10:25.761Z,26.90
2022-09-07T15:12:55.294Z,26.80
2022-09-07T15:15:26.288Z,26.70
2022-09-07T15:17:55.681Z,26.60
2022-09-07T15:20:39.601Z,26.50
2022-09-07T15:23:18.196Z,26.40
2022-09-07T15:25:50.959Z,26.30
2022-09-07T15:34:11.568Z,26.00
2022-09-07T15:36:43.549Z,25.80
2022-09-07T15:39:22.064Z,25.70
2022-09-07T15:41:49.595Z,25.70
2022-09-07T15:44:20.420Z,25.70
2022-09-07T15:49:36.309Z,25.70
2022-09-07T15:52:06.656Z,25.60
2022-09-07T15:54:35.293Z,25.50
2022-09-07T15:59:50.286Z,25.40
2022-09-07T16:05:04.961Z,25.20
2022-09-07T16:10:19.439Z,24.80
2022-09-07T16:13:08.725Z,24.70
2022-09-07T16:15:34.040Z,24.60
2022-09-07T16:18:02.271Z,24.50
2022-09-07T16:20:31.950Z,24.40
2022-09-07T16:23:15.640Z,24.30
2022-09-07T16:25:56.103Z,24.30
2022-09-07T16:28:22.959Z,24.20
2022-09-07T16:30:49.588Z,24.20
2022-09-07T16:33:16.374Z,24.00
2022-09-07T16:35:43.110Z,23.90
2022-09-07T16:40:56.446Z,23.90
2022-09-07T16:43:23.034Z,23.80
2022-09-07T16:46:04.433Z,23.80
2022-09-07T16:48:32.807Z,23.50
2022-09-07T16:51:02.573Z,23.40
2022-09-07T16:53:32.473Z,23.30
2022-09-07T16:56:09.835Z,23.10
2022-09-07T16:58:41.966Z,22.90
2022-09-07T17:01:11.610Z,22.80
2022-09-07T17:03:39.278Z,22.80
2022-09-07T17:06:07.820Z,22.70
2022-09-07T17:08:36.006Z,22.70
2022-09-07T17:11:05.921Z,22.60
2022-09-07T17:13:34.584Z,22.50
2022-09-07T17:16:13.379Z,22.50
2022-09-07T17:21:36.284Z,22.30
2022-09-07T17:24:04.713Z,22.30
2022-09-07T17:26:32.750Z,22.20
2022-09-07T17:29:00.895Z,22.20
2022-09-07T17:34:23.394Z,22.10
2022-09-07T17:36:50.257Z,22.10
2022-09-07T17:39:18.809Z,22.20
2022-09-07T17:41:47.570Z,22.20
2022-09-07T17:44:14.242Z,22.30
2022-09-07T17:46:41.129Z,22.30
2022-09-07T17:49:12.054Z,22.40
2022-09-07T17:51:38.756Z,22.30
2022-09-07T17:54:10.847Z,22.30
2022-09-07T17:56:38.655Z,22.30
2022-09-07T18:01:54.057Z,22.30
2022-09-07T18:04:21.354Z,22.30
2022-09-07T18:06:48.301Z,22.30
2022-09-07T18:09:15.134Z,22.40
2022-09-07T18:11:44.914Z,22.30
2022-09-07T18:14:13.514Z,22.30
2022-09-07T18:16:40.455Z,22.20
2022-09-07T18:19:09.750Z,22.20
2022-09-07T18:21:37.600Z,22.20
2022-09-07T18:24:07.606Z,22.20
2022-09-07T18:26:38.311Z,22.20
2022-09-07T18:29:13.192Z,22.10
2022-09-07T18:31:52.313Z,22.10
2022-09-07T18:34:19.112Z,22.10
2022-09-07T18:36:45.762Z,22.10
2022-09-07T18:39:13.266Z,22.00
2022-09-07T18:41:40.875Z,22.00
2022-09-07T18:45:27.326Z,21.90
2022-09-07T18:46:54.662Z,21.80
2022-09-07T18:49:21.290Z,21.80
2022-09-07T18:54:34.592Z,21.80
2022-09-07T18:57:01.280Z,21.50
2022-09-07T18:59:28.118Z,21.50
2022-09-07T19:02:01.375Z,21.50
2022-09-07T19:07:17.904Z,21.50
2022-09-07T19:09:44.580Z,21.40
2022-09-07T19:12:11.214Z,21.40
2022-09-07T19:14:37.802Z,21.50
2022-09-07T19:17:04.491Z,21.50
2022-09-07T19:19:32.858Z,21.50
2022-09-07T19:22:01.484Z,21.50
2022-09-07T19:24:28.417Z,21.50
2022-09-07T19:27:00.036Z,21.50
2022-09-07T19:29:27.530Z,21.40
2022-09-07T19:32:07.572Z,21.40
2022-09-07T19:34:39.537Z,21.40
2022-09-07T19:37:07.657Z,21.40
2022-09-07T19:39:34.674Z,21.30
2022-09-07T19:42:04.065Z,21.40
2022-09-07T19:44:31.226Z,21.30
2022-09-07T19:46:58.112Z,21.20
2022-09-07T19:49:24.799Z,21.30
2022-09-07T19:51:52.153Z,21.30
2022-09-07T19:54:19.212Z,21.30
2022-09-07T19:56:46.040Z,21.30
2022-09-07T19:59:13.159Z,21.30
2022-09-07T20:01:40.634Z,21.30
2022-09-07T20:04:10.535Z,21.30
2022-09-07T20:06:39.323Z,21.30
2022-09-07T20:09:07.931Z,21.30
2022-09-07T20:11:35.941Z,21.30
2022-09-07T20:14:03.617Z,21.30
2022-09-07T20:16:31.318Z,21.30
2022-09-07T20:18:59.213Z,21.30
2022-09-07T20:21:26.182Z,21.30
2022-09-07T20:23:53.157Z,21.20
2022-09-07T20:26:21.079Z,21.10
2022-09-07T20:29:05.912Z,21.10
2022-09-07T20:31:40.646Z,21.10
2022-09-07T20:34:08.679Z,20.90
2022-09-07T20:36:35.531Z,20.90
2022-09-07T20:39:02.302Z,20.90
2022-09-07T20:41:31.947Z,20.90
2022-09-07T20:44:00.617Z,21.00
2022-09-07T20:46:28.948Z,21.00
2022-09-07T20:48:55.833Z,21.00
2022-09-07T20:51:23.021Z,20.90
2022-09-07T20:53:50.768Z,20.90
2022-09-07T20:56:20.524Z,20.90
2022-09-07T20:58:49.021Z,21.00
2022-09-07T21:01:18.037Z,21.00
2022-09-07T21:03:50.247Z,21.00
2022-09-07T21:06:18.438Z,21.00
2022-09-07T21:08:46.717Z,21.00
2022-09-07T21:11:22.101Z,21.00
2022-09-07T21:13:58.492Z,20.90
2022-09-07T21:16:25.594Z,20.80
2022-09-07T21:18:57.400Z,20.80
2022-09-07T21:21:25.072Z,20.80
2022-09-07T21:23:56.831Z,20.80
2022-09-07T21:26:24.208Z,20.80
2022-09-07T21:28:57.777Z,20.80
2022-09-07T21:31:24.848Z,20.80
2022-09-07T21:33:56.170Z,20.70
2022-09-07T21:36:23.261Z,20.70
2022-09-07T21:38:50.145Z,20.70
2022-09-07T21:41:19.243Z,20.60
2022-09-07T21:43:46.544Z,20.60
2022-09-07T21:46:18.616Z,20.60
2022-09-07T21:48:45.952Z,20.60
2022-09-07T21:51:13.580Z,20.70
2022-09-07T21:53:40.395Z,20.60
2022-09-07T21:56:10.922Z,20.60
2022-09-07T21:58:37.703Z,20.50
2022-09-07T22:01:17.128Z,20.40
2022-09-07T22:03:46.274Z,20.40
2022-09-07T22:06:13.488Z,20.40
2022-09-07T22:08:41.871Z,20.30
2022-09-07T22:11:14.146Z,20.30
2022-09-07T22:13:43.516Z,20.20
2022-09-07T22:16:11.216Z,20.20
2022-09-07T22:18:44.826Z,20.10
2022-09-07T22:21:14.486Z,19.80
2022-09-07T22:23:44.358Z,19.80
2022-09-07T22:26:11.899Z,19.80
2022-09-07T22:28:38.936Z,19.90
2022-09-07T22:31:33.572Z,19.90
2022-09-07T22:34:02.124Z,19.90
2022-09-07T22:36:32.348Z,19.90
2022-09-07T22:39:02.728Z,19.90
2022-09-07T22:41:34.012Z,19.90
2022-09-07T22:44:00.885Z,19.90
2022-09-07T22:46:30.752Z,20.00
2022-09-07T22:48:58.367Z,20.00
2022-09-07T22:51:26.750Z,20.00
2022-09-07T22:53:54.638Z,20.00
2022-09-07T22:56:24.912Z,20.10
2022-09-07T22:58:52.510Z,20.10
2022-09-07T23:01:20.537Z,20.10
2022-09-07T23:03:47.333Z,20.20
2022-09-07T23:06:35.414Z,20.20
2022-09-07T23:09:06.714Z,20.20
2022-09-07T23:11:33.863Z,20.20
2022-09-07T23:14:02.511Z,20.20
2022-09-07T23:16:29.699Z,20.20
2022-09-07T23:18:59.501Z,20.20
2022-09-07T23:21:27.262Z,20.10
2022-09-07T23:23:58.276Z,20.10
2022-09-07T23:26:27.737Z,20.10
2022-09-07T23:28:56.581Z,20.10
2022-09-07T23:31:24.210Z,20.10
2022-09-07T23:33:51.531Z,20.10
2022-09-07T23:36:18.835Z,20.00
2022-09-07T23:38:46.194Z,20.00
2022-09-07T23:41:17.759Z,20.00
2022-09-07T23:43:44.429Z,19.90
2022-09-07T23:46:13.148Z,19.90
2022-09-07T23:48:39.948Z,19.90
2022-09-07T23:51:06.733Z,19.90
2022-09-07T23:53:33.588Z,19.90
2022-09-07T23:56:00.316Z,19.70
2022-09-07T23:58:26.961Z,19.80
